Time;durP1;ratioP1;P1;durP2;ratioP2;P2;SDS_P1;SDS_P2;PMS_P1;PMS_P2;Temp;Humidity;BMP_temperature;BMP_pressure;BME280_temperature;BME280_humidity;BME280_pressure;Samples;Min_cycle;Max_cycle;Signal;HPM_P1;HPM_P2
2023/05/20 00:01:34;;;;;;;17.13;6.43;;;;;;;12.18;73.82;102745.97;6100064;19;20625;-73
2023/05/20 00:03:41;;;;;;;17.65;6.82;;;;;;;12.19;73.26;102745.09;6097999;19;20003;-73
2023/05/20 00:05:47;;;;;;;14.77;6.28;;;;;;;12.20;73.40;102738.06;6098583;19;20010;-73
2023/05/20 00:07:52;;;;;;;15.98;6.22;;;;;;;12.19;73.03;102734.56;6099171;19;22264;-72
2023/05/20 00:09:59;;;;;;;13.63;5.20;;;;;;;12.22;73.01;102739.78;6097726;19;20017;-73
2023/05/20 00:12:04;;;;;;;16.10;6.53;;;;;;;12.13;72.53;102739.91;6099395;19;20507;-73
2023/05/20 00:14:09;;;;;;;14.38;6.07;;;;;;;12.10;72.87;102747.88;6099107;19;20452;-72
2023/05/20 00:16:17;;;;;;;15.57;6.32;;;;;;;12.09;72.81;102751.41;6099776;19;20025;-72
2023/05/20 00:18:23;;;;;;;14.63;6.40;;;;;;;12.08;72.68;102757.56;6097129;19;20200;-72
2023/05/20 00:20:34;;;;;;;12.77;5.65;;;;;;;12.03;72.63;102748.84;6098908;19;20514;-73
2023/05/20 00:22:40;;;;;;;16.00;6.03;;;;;;;12.01;72.61;102740.13;6097396;19;20604;-73
2023/05/20 00:24:45;;;;;;;15.32;6.07;;;;;;;11.99;72.13;102747.19;6099195;19;20017;-73
2023/05/20 00:26:50;;;;;;;13.25;5.93;;;;;;;11.97;72.14;102747.19;6096383;19;20490;-72
2023/05/20 00:28:56;;;;;;;16.50;7.38;;;;;;;11.92;72.04;102750.81;6099242;19;20007;-73
2023/05/20 00:31:01;;;;;;;15.50;6.13;;;;;;;11.95;72.41;102748.09;6097693;19;20011;-73
2023/05/20 00:33:09;;;;;;;14.23;6.88;;;;;;;11.91;72.44;102746.44;6099291;19;20975;-72
2023/05/20 00:35:14;;;;;;;15.40;5.75;;;;;;;11.91;72.07;102744.66;6098143;19;20007;-73
2023/05/20 00:37:19;;;;;;;16.02;6.32;;;;;;;11.86;72.22;102750.00;6096361;19;20014;-73
2023/05/20 00:39:25;;;;;;;13.48;6.43;;;;;;;11.84;72.03;102742.97;6090304;19;20106;-72
2023/05/20 00:41:31;;;;;;;13.88;6.53;;;;;;;11.82;71.82;102748.28;6103996;19;20038;-73
2023/05/20 00:43:36;;;;;;;10.90;6.13;;;;;;;11.82;72.08;102750.94;6103519;19;20034;-73
2023/05/20 00:45:42;;;;;;;17.48;6.28;;;;;;;11.79;72.21;102744.81;6105563;19;20038;-73
2023/05/20 00:47:47;;;;;;;13.70;6.53;;;;;;;11.69;72.67;102746.72;6104666;19;20368;-73
2023/05/20 00:49:56;;;;;;;14.10;6.65;;;;;;;11.68;72.65;102747.59;6103002;19;20372;-73
2023/05/20 00:52:01;;;;;;;14.57;5.97;;;;;;;11.67;72.73;102745.00;6104103;19;20014;-72
2023/05/20 00:54:14;;;;;;;11.45;5.97;;;;;;;11.66;72.86;102741.47;6103001;19;20015;-72
2023/05/20 00:56:20;;;;;;;15.02;6.45;;;;;;;11.64;72.89;102732.75;6101808;19;20014;-73
2023/05/20 00:58:26;;;;;;;15.68;6.05;;;;;;;11.63;72.96;102731.00;6101607;19;20014;-72
2023/05/20 01:00:31;;;;;;;13.63;6.70;;;;;;;11.61;72.93;102738.03;6098214;19;20010;-72
2023/05/20 01:02:37;;;;;;;18.35;6.13;;;;;;;11.59;72.78;102729.31;6095349;19;20006;-72
2023/05/20 01:04:46;;;;;;;16.10;7.18;;;;;;;11.54;73.00;102723.25;6098989;19;20019;-72
2023/05/20 01:06:54;;;;;;;16.80;6.93;;;;;;;11.55;73.29;102730.25;6099664;19;20455;-72
2023/05/20 01:09:00;;;;;;;16.40;7.15;;;;;;;11.54;73.31;102720.63;6102795;19;20486;-72
2023/05/20 01:11:08;;;;;;;19.23;7.45;;;;;;;11.51;73.21;102724.16;6099758;19;20035;-72
2023/05/20 01:13:18;;;;;;;20.42;6.80;;;;;;;11.48;73.47;102720.69;6097322;19;20489;-73
2023/05/20 01:15:25;;;;;;;14.80;6.13;;;;;;;11.46;73.72;102718.09;6099073;19;20471;-72
2023/05/20 01:17:36;;;;;;;17.25;6.40;;;;;;;11.48;73.79;102725.94;6091892;19;20002;-72
2023/05/20 01:19:45;;;;;;;17.52;6.10;;;;;;;11.42;73.89;102724.28;6102672;19;20043;-73
2023/05/20 01:21:55;;;;;;;16.23;6.55;;;;;;;11.42;73.90;102722.50;6100496;19;20543;-74
2023/05/20 01:24:04;;;;;;;16.80;6.72;;;;;;;11.36;73.86;102708.56;6101579;19;20034;-74
2023/05/20 01:26:12;;;;;;;14.23;7.30;;;;;;;11.40;74.44;102720.78;6101221;19;20367;-74
2023/05/20 01:28:18;;;;;;;17.17;6.60;;;;;;;11.39;74.06;102719.91;6094985;19;20013;-74
2023/05/20 01:30:27;;;;;;;17.67;6.72;;;;;;;11.36;74.40;102713.84;6095405;19;20002;-74
2023/05/20 01:32:39;;;;;;;16.42;7.32;;;;;;;11.33;74.94;102717.38;6099171;19;20649;-73
2023/05/20 01:34:45;;;;;;;13.48;6.68;;;;;;;11.31;74.83;102716.53;6093846;19;19999;-73
2023/05/20 01:36:52;;;;;;;18.38;7.35;;;;;;;11.31;74.83;102713.03;6098004;19;20010;-74
2023/05/20 01:38:59;;;;;;;19.23;7.18;;;;;;;11.26;75.14;102714.84;6097781;19;20002;-74
2023/05/20 01:41:08;;;;;;;16.92;7.13;;;;;;;11.26;75.39;102709.59;6099657;19;20074;-74
2023/05/20 01:43:15;;;;;;;16.58;7.07;;;;;;;11.23;75.85;102702.59;6097172;19;20504;-74
2023/05/20 01:45:25;;;;;;;19.33;7.88;;;;;;;11.25;75.64;102703.47;6095776;19;20007;-74
2023/05/20 01:47:30;;;;;;;17.83;6.95;;;;;;;11.24;75.75;102699.06;6096065;19;20034;-74
2023/05/20 01:49:35;;;;;;;18.05;7.65;;;;;;;11.25;75.92;102702.59;6094147;19;20037;-74
2023/05/20 01:51:43;;;;;;;16.30;7.03;;;;;;;11.26;75.88;102701.69;6100487;19;20063;-74
2023/05/20 01:53:48;;;;;;;16.67;6.70;;;;;;;11.22;76.04;102698.25;6091857;19;20387;-74
2023/05/20 01:55:54;;;;;;;16.83;8.20;;;;;;;11.20;75.93;102700.03;6097958;19;20010;-73
2023/05/20 01:58:04;;;;;;;18.13;8.13;;;;;;;11.19;76.14;102695.66;6100432;19;20419;-74
2023/05/20 02:00:11;;;;;;;21.23;7.85;;;;;;;11.22;76.18;102700.88;6097423;19;20010;-74
2023/05/20 02:02:17;;;;;;;19.17;8.23;;;;;;;11.21;76.05;102697.34;6097315;19;20520;-74
2023/05/20 02:04:26;;;;;;;19.40;7.75;;;;;;;11.17;76.34;102697.44;6096970;19;20009;-74
2023/05/20 02:06:33;;;;;;;16.17;7.00;;;;;;;11.12;76.45;102694.84;6096670;19;20014;-74
2023/05/20 02:08:39;;;;;;;16.17;7.57;;;;;;;11.13;76.49;102690.47;6096385;19;20444;-74
2023/05/20 02:10:44;;;;;;;18.55;6.93;;;;;;;11.11;76.55;102697.50;6096596;19;20362;-74
2023/05/20 02:12:50;;;;;;;18.70;6.97;;;;;;;11.10;76.88;102695.75;6099415;19;20104;-74
2023/05/20 02:14:58;;;;;;;18.95;7.15;;;;;;;11.12;77.01;102692.22;6096090;19;20054;-74
2023/05/20 02:17:03;;;;;;;21.60;7.72;;;;;;;11.12;76.75;102694.00;6097862;19;20094;-74
2023/05/20 02:19:11;;;;;;;25.92;8.23;;;;;;;11.10;76.99;102693.13;6100207;19;20003;-75
2023/05/20 02:21:16;;;;;;;18.00;7.85;;;;;;;11.04;77.31;102691.47;6098333;19;20014;-73
2023/05/20 02:23:25;;;;;;;19.40;7.40;;;;;;;11.02;77.30;102689.72;6095709;19;20007;-72
2023/05/20 02:25:30;;;;;;;16.30;7.18;;;;;;;10.99;77.33;102696.75;6094914;19;20006;-73
2023/05/20 02:27:39;;;;;;;15.80;7.70;;;;;;;10.97;77.56;102693.28;6097855;19;20034;-76
2023/05/20 02:29:44;;;;;;;19.98;7.28;;;;;;;10.98;77.31;102695.03;6099580;19;20030;-75
2023/05/20 02:31:53;;;;;;;18.83;7.88;;;;;;;10.97;77.38;102700.31;6101542;19;20014;-73
2023/05/20 02:34:00;;;;;;;17.65;7.93;;;;;;;10.91;77.45;102693.38;6099858;19;20017;-75
2023/05/20 02:36:06;;;;;;;15.23;7.45;;;;;;;10.96;77.66;102691.53;6098574;19;20126;-75
2023/05/20 02:38:12;;;;;;;19.50;7.55;;;;;;;10.95;77.82;102688.94;6099807;19;20082;-73
2023/05/20 02:40:19;;;;;;;17.77;8.80;;;;;;;10.93;77.72;102683.69;6100363;19;20401;-75
2023/05/20 02:42:26;;;;;;;20.20;7.47;;;;;;;10.96;77.60;102688.91;6101990;19;20042;-72
2023/05/20 02:44:33;;;;;;;16.00;6.40;;;;;;;10.98;77.46;102687.16;6099356;19;20037;-75
2023/05/20 02:46:42;;;;;;;17.13;8.13;;;;;;;10.93;77.63;102688.97;6097154;19;20338;-75
2023/05/20 02:48:49;;;;;;;18.25;7.38;;;;;;;10.98;77.75;102681.88;6100942;19;20146;-75
2023/05/20 02:50:54;;;;;;;17.80;8.10;;;;;;;10.94;77.77;102685.44;6102983;19;20017;-72
2023/05/20 02:53:00;;;;;;;19.55;7.47;;;;;;;10.99;77.71;102680.13;6091106;19;20438;-73
2023/05/20 02:55:06;;;;;;;19.08;8.18;;;;;;;10.97;77.64;102682.75;6101638;19;20003;-73
2023/05/20 02:57:11;;;;;;;20.40;7.85;;;;;;;11.03;77.41;102679.16;6101422;19;20007;-73
2023/05/20 02:59:16;;;;;;;26.73;8.15;;;;;;;11.03;77.68;102675.69;6101508;19;20089;-73
2023/05/20 03:01:22;;;;;;;19.75;7.75;;;;;;;11.04;77.44;102683.56;6098385;19;20486;-73
2023/05/20 03:03:30;;;;;;;16.90;7.13;;;;;;;11.07;77.37;102680.03;6098831;19;20003;-73
2023/05/20 03:05:41;;;;;;;17.15;7.22;;;;;;;11.06;77.36;102678.25;6100106;19;20002;-74
2023/05/20 03:07:47;;;;;;;23.65;9.20;;;;;;;11.04;77.77;102678.31;6099618;19;20244;-76
2023/05/20 03:09:53;;;;;;;17.67;8.23;;;;;;;11.02;77.55;102677.44;6102360;19;20014;-73
2023/05/20 03:11:58;;;;;;;16.63;7.22;;;;;;;11.04;77.58;102682.69;6101377;19;20574;-73
2023/05/20 03:14:03;;;;;;;16.48;7.55;;;;;;;11.02;77.44;102680.06;6101219;19;20015;-74
2023/05/20 03:16:09;;;;;;;17.23;7.53;;;;;;;11.09;77.61;102680.88;6098400;19;20033;-74
2023/05/20 03:18:15;;;;;;;19.20;7.85;;;;;;;11.11;77.17;102684.34;6101060;19;20368;-74
2023/05/20 03:20:26;;;;;;;20.67;7.53;;;;;;;11.13;76.94;102690.47;6100949;19;20114;-74
2023/05/20 03:22:34;;;;;;;18.83;7.63;;;;;;;11.11;77.00;102676.44;6100905;19;19999;-74
2023/05/20 03:24:43;;;;;;;21.58;8.60;;;;;;;11.14;77.25;102681.69;6102763;19;20021;-73
2023/05/20 03:26:48;;;;;;;18.15;6.82;;;;;;;11.09;77.13;102679.13;6099620;19;20455;-74
2023/05/20 03:28:54;;;;;;;18.33;7.30;;;;;;;11.04;77.36;102678.31;6097515;19;20452;-73
2023/05/20 03:31:01;;;;;;;16.70;6.90;;;;;;;11.06;77.56;102679.16;6099231;19;20014;-73
2023/05/20 03:33:06;;;;;;;15.30;6.70;;;;;;;11.07;77.26;102687.91;6095454;19;20007;-73
2023/05/20 03:35:11;;;;;;;21.55;7.43;;;;;;;11.03;77.42;102678.31;6094498;19;20494;-73
2023/05/20 03:37:17;;;;;;;17.38;7.78;;;;;;;10.98;77.36;102681.88;6096164;19;20015;-71
2023/05/20 03:39:25;;;;;;;15.82;7.70;;;;;;;10.99;77.33;102683.63;6099992;19;20581;-72
2023/05/20 03:41:30;;;;;;;13.77;7.25;;;;;;;11.02;77.47;102673.94;6089441;19;20447;-72
2023/05/20 03:43:35;;;;;;;16.50;7.40;;;;;;;10.97;77.64;102677.50;6096036;19;20312;-72
2023/05/20 03:45:41;;;;;;;18.85;8.65;;;;;;;10.97;77.56;102680.13;6098434;19;20324;-72
2023/05/20 03:47:47;;;;;;;19.15;7.95;;;;;;;11.01;77.72;102675.72;6095931;19;20031;-72
2023/05/20 03:49:52;;;;;;;19.98;8.10;;;;;;;10.94;78.47;102668.78;6095946;19;20013;-71
2023/05/20 03:51:58;;;;;;;19.55;8.43;;;;;;;10.97;78.34;102668.75;6095788;19;20010;-73
2023/05/20 03:54:04;;;;;;;19.45;7.97;;;;;;;10.96;78.11;102674.91;6088892;19;20160;-72
2023/05/20 03:56:11;;;;;;;20.42;7.68;;;;;;;10.90;78.14;102670.59;6093794;19;20534;-72
2023/05/20 03:58:17;;;;;;;20.58;7.82;;;;;;;10.92;78.23;102671.41;6093125;19;20061;-72
2023/05/20 04:00:22;;;;;;;21.10;8.40;;;;;;;10.97;78.44;102666.09;6093064;19;20010;-72
2023/05/20 04:02:28;;;;;;;15.43;7.47;;;;;;;10.95;78.22;102668.78;6093301;19;20299;-72
2023/05/20 04:04:35;;;;;;;17.67;7.28;;;;;;;10.97;78.03;102664.34;6095984;19;20319;-72
2023/05/20 04:06:42;;;;;;;19.95;7.80;;;;;;;11.06;78.12;102679.16;6095528;19;20010;-73
2023/05/20 04:08:48;;;;;;;20.55;8.32;;;;;;;11.06;78.21;102668.63;6093782;19;20351;-74
2023/05/20 04:10:53;;;;;;;16.67;7.57;;;;;;;11.05;78.28;102673.91;6096754;19;20003;-74
2023/05/20 04:13:01;;;;;;;15.20;7.47;;;;;;;11.01;78.09;102664.31;6092188;19;21428;-73
2023/05/20 04:15:08;;;;;;;18.13;8.05;;;;;;;11.00;78.19;102668.69;6097176;19;20027;-73
2023/05/20 04:17:13;;;;;;;18.60;7.32;;;;;;;11.05;78.21;102668.63;6101342;19;20014;-73
2023/05/20 04:19:19;;;;;;;18.73;7.50;;;;;;;11.03;78.66;102668.66;6102002;19;20086;-73
2023/05/20 04:21:26;;;;;;;16.38;7.50;;;;;;;11.07;78.58;102678.25;6096548;19;20069;-73
2023/05/20 04:23:32;;;;;;;18.63;8.32;;;;;;;11.09;78.66;102673.00;6099038;19;20089;-73
2023/05/20 04:25:37;;;;;;;19.45;8.00;;;;;;;11.09;78.35;102667.72;6101059;19;20017;-74
2023/05/20 04:27:43;;;;;;;21.60;7.57;;;;;;;11.13;78.47;102674.66;6104544;19;20554;-73
2023/05/20 04:29:51;;;;;;;19.55;7.82;;;;;;;11.12;78.65;102670.31;6104929;19;20018;-73
2023/05/20 04:31:57;;;;;;;17.25;8.15;;;;;;;11.13;78.57;102675.53;6103084;19;20006;-73
2023/05/20 04:34:03;;;;;;;18.25;7.20;;;;;;;11.16;78.41;102674.63;6103778;19;20400;-73
2023/05/20 04:36:15;;;;;;;17.23;7.28;;;;;;;11.19;78.65;102677.25;6099134;19;20518;-73
2023/05/20 04:38:28;;;;;;;19.00;7.90;;;;;;;11.20;78.49;102676.34;6095827;19;20002;-73
2023/05/20 04:40:33;;;;;;;22.02;8.35;;;;;;;11.23;78.86;102675.41;6104461;19;20016;-73
2023/05/20 04:42:42;;;;;;;17.10;6.78;;;;;;;11.27;78.66;102678.00;6101716;19;20106;-74
2023/05/20 04:44:50;;;;;;;23.40;9.90;;;;;;;11.33;78.85;102672.63;6103079;19;20010;-74
2023/05/20 04:46:56;;;;;;;19.60;8.07;;;;;;;11.37;79.02;102674.34;6104394;19;20015;-73
2023/05/20 04:49:03;;;;;;;18.50;7.10;;;;;;;11.43;78.80;102679.50;6106346;19;20038;-73
2023/05/20 04:51:08;;;;;;;16.85;7.57;;;;;;;11.43;79.00;102681.28;6105685;19;20068;-73
2023/05/20 04:53:13;;;;;;;19.25;8.02;;;;;;;11.49;78.96;102668.00;6094231;19;20003;-73
2023/05/20 04:55:20;;;;;;;20.20;8.43;;;;;;;11.54;78.88;102671.44;6104233;19;20024;-73
2023/05/20 04:57:26;;;;;;;19.90;8.02;;;;;;;11.54;78.91;102681.13;6097067;19;20002;-73
2023/05/20 04:59:34;;;;;;;21.73;8.43;;;;;;;11.59;78.91;102672.25;6100747;19;20019;-75
2023/05/20 05:01:41;;;;;;;17.38;8.55;;;;;;;11.61;79.05;102669.56;6100061;19;20028;-76
2023/05/20 05:03:47;;;;;;;22.90;8.02;;;;;;;11.62;79.00;102669.56;6103107;19;20495;-75
2023/05/20 05:05:52;;;;;;;17.48;7.63;;;;;;;11.62;79.22;102668.72;6102941;19;20070;-75
2023/05/20 05:08:00;;;;;;;19.88;8.02;;;;;;;11.67;78.93;102671.28;6102218;19;20286;-74
2023/05/20 05:10:06;;;;;;;19.35;8.32;;;;;;;11.76;78.83;102666.72;6103415;19;20597;-74
2023/05/20 05:12:11;;;;;;;17.88;8.82;;;;;;;11.77;78.80;102663.19;6102659;19;20073;-74
2023/05/20 05:14:16;;;;;;;26.55;7.68;;;;;;;11.82;78.84;102666.63;6103071;19;20320;-74
2023/05/20 05:16:22;;;;;;;19.48;8.02;;;;;;;12.16;78.11;102667.84;6100776;19;20531;-75
2023/05/20 05:18:32;;;;;;;18.17;7.35;;;;;;;12.38;77.19;102665.69;6104793;19;20006;-74
2023/05/20 05:20:37;;;;;;;16.92;7.32;;;;;;;12.38;77.11;102663.06;6101014;19;20007;-73
2023/05/20 05:22:42;;;;;;;20.50;9.38;;;;;;;12.38;77.26;102668.31;6101576;19;20052;-73
2023/05/20 05:24:47;;;;;;;19.45;7.75;;;;;;;12.42;77.18;102662.09;6102712;19;20019;-73
2023/05/20 05:26:55;;;;;;;17.80;7.70;;;;;;;12.77;76.21;102663.16;6101732;19;20015;-72
2023/05/20 05:29:00;;;;;;;19.15;7.97;;;;;;;12.58;75.99;102666.16;6097423;19;20880;-73
2023/05/20 05:31:06;;;;;;;17.67;7.15;;;;;;;12.55;76.10;102657.44;6096426;19;20599;-73
2023/05/20 05:33:12;;;;;;;24.17;7.53;;;;;;;12.59;76.28;102660.00;6100515;19;20039;-73
2023/05/20 05:35:21;;;;;;;16.65;7.65;;;;;;;12.68;75.56;102651.88;6098074;19;20006;-73
2023/05/20 05:37:25;;;;;;;22.25;8.65;;;;;;;13.09;75.04;102654.56;6097499;19;20023;-73
2023/05/20 05:39:31;;;;;;;19.30;7.78;;;;;;;13.15;73.88;102650.00;6096727;19;20011;-73
2023/05/20 05:41:36;;;;;;;23.02;8.07;;;;;;;13.05;73.93;102656.38;6096323;19;20063;-73
2023/05/20 05:43:41;;;;;;;20.27;8.07;;;;;;;13.02;74.06;102650.31;6096376;19;20807;-73
2023/05/20 05:45:46;;;;;;;17.55;7.00;;;;;;;12.95;73.62;102650.47;6101774;19;20463;-73
2023/05/20 05:47:53;;;;;;;17.77;8.45;;;;;;;13.05;73.65;102648.47;6099745;19;20392;-73
2023/05/20 05:49:58;;;;;;;15.18;7.82;;;;;;;13.33;73.20;102645.25;6099657;19;20007;-73
2023/05/20 05:52:07;;;;;;;17.95;8.43;;;;;;;13.99;71.42;102647.16;6100531;19;20420;-72
2023/05/20 05:54:12;;;;;;;22.45;7.90;;;;;;;14.42;69.83;102648.63;6096513;19;20459;-71
2023/05/20 05:56:18;;;;;;;17.63;7.55;;;;;;;14.39;69.12;102648.72;6094051;19;20010;-72
2023/05/20 05:58:23;;;;;;;21.52;7.78;;;;;;;14.16;69.17;102646.69;6098579;19;20010;-73
2023/05/20 06:00:32;;;;;;;15.90;6.88;;;;;;;13.97;69.75;102650.72;6095450;19;20589;-73
2023/05/20 06:02:37;;;;;;;18.02;7.78;;;;;;;14.08;69.20;102651.31;6098746;19;20019;-73
2023/05/20 06:04:43;;;;;;;15.93;6.47;;;;;;;14.15;69.32;102649.38;6098222;19;20416;-74
2023/05/20 06:06:49;;;;;;;17.55;7.65;;;;;;;14.22;68.46;102658.91;6098406;19;20688;-74
2023/05/20 06:08:58;;;;;;;18.42;7.85;;;;;;;14.52;67.93;102656.31;6098895;19;20067;-74
2023/05/20 06:11:03;;;;;;;15.75;7.95;;;;;;;14.78;66.84;102647.69;6100835;19;20069;-74
2023/05/20 06:13:08;;;;;;;21.90;9.07;;;;;;;15.07;66.42;102657.41;6097359;19;20006;-74
2023/05/20 06:15:14;;;;;;;16.83;8.23;;;;;;;15.41;65.12;102657.22;6100305;19;20013;-74
2023/05/20 06:17:19;;;;;;;18.67;7.43;;;;;;;15.31;64.30;102656.63;6099627;19;20021;-74
2023/05/20 06:19:25;;;;;;;17.65;7.80;;;;;;;15.68;64.44;102639.53;6099058;19;20117;-73
2023/05/20 06:21:31;;;;;;;18.80;8.10;;;;;;;15.79;63.50;102647.16;6101325;19;20082;-74
2023/05/20 06:23:36;;;;;;;17.80;7.85;;;;;;;15.81;62.55;102642.69;6096476;19;20086;-74
2023/05/20 06:25:44;;;;;;;18.67;8.10;;;;;;;15.88;62.57;102648.66;6099256;19;20015;-75
2023/05/20 06:27:50;;;;;;;18.50;7.95;;;;;;;16.15;61.64;102634.44;6097382;19;20042;-75
2023/05/20 06:29:55;;;;;;;20.48;7.82;;;;;;;16.11;61.78;102638.09;6089484;19;20014;-75
2023/05/20 06:32:01;;;;;;;16.63;6.47;;;;;;;16.46;61.36;102636.00;6099903;19;20024;-73
2023/05/20 06:34:06;;;;;;;17.23;7.60;;;;;;;16.48;60.41;102642.09;6097439;19;20006;-73
2023/05/20 06:36:11;;;;;;;16.52;8.38;;;;;;;16.58;60.04;102634.66;6098158;19;20010;-73
2023/05/20 06:38:19;;;;;;;19.05;8.30;;;;;;;16.78;59.67;102629.50;6096404;19;20003;-75
2023/05/20 06:40:27;;;;;;;14.20;6.90;;;;;;;16.82;59.26;102631.13;6098839;19;20014;-75
2023/05/20 06:42:36;;;;;;;20.20;8.18;;;;;;;16.88;59.33;102632.69;6098660;19;20022;-72
2023/05/20 06:44:41;;;;;;;18.70;8.07;;;;;;;16.94;59.16;102621.81;6097785;19;20019;-73
2023/05/20 06:46:46;;;;;;;24.20;9.25;;;;;;;16.65;59.64;102629.06;6097979;19;20006;-73
2023/05/20 06:48:52;;;;;;;15.18;7.35;;;;;;;17.02;58.77;102624.19;6098152;19;20029;-75
2023/05/20 06:51:00;;;;;;;20.45;7.93;;;;;;;17.01;58.50;102636.59;6090499;19;20002;-73
2023/05/20 06:53:05;;;;;;;16.38;7.57;;;;;;;17.10;58.27;102630.06;6090063;19;20007;-74
2023/05/20 06:55:11;;;;;;;21.23;7.88;;;;;;;17.29;57.84;102631.03;6096022;19;20007;-73
2023/05/20 06:57:16;;;;;;;19.65;8.07;;;;;;;17.52;57.88;102627.47;6098264;19;20027;-73
2023/05/20 06:59:24;;;;;;;16.38;7.47;;;;;;;17.33;57.15;102626.50;6096193;19;20013;-73
2023/05/20 07:01:30;;;;;;;15.35;8.30;;;;;;;17.66;57.05;102621.56;6095037;19;20007;-73
2023/05/20 07:03:35;;;;;;;13.75;6.90;;;;;;;17.77;56.46;102610.47;6094422;19;20482;-73
2023/05/20 07:05:40;;;;;;;18.55;7.93;;;;;;;17.88;56.18;102618.91;6098456;19;20007;-73
2023/05/20 07:07:46;;;;;;;17.92;7.63;;;;;;;17.88;55.59;102613.59;6098156;19;20042;-73
2023/05/20 07:09:54;;;;;;;16.70;6.60;;;;;;;17.76;55.30;102614.94;6096717;19;20010;-73
2023/05/20 07:12:01;;;;;;;17.25;7.80;;;;;;;17.96;55.44;102619.44;6098173;19;20053;-73
2023/05/20 07:14:07;;;;;;;16.55;8.15;;;;;;;18.13;54.43;102605.38;6095792;19;20019;-73
2023/05/20 07:16:16;;;;;;;17.40;7.65;;;;;;;18.37;54.16;102616.72;6093589;19;20619;-74
2023/05/20 07:18:27;;;;;;;18.25;7.30;;;;;;;18.14;53.38;102606.25;6096213;19;20014;-74
2023/05/20 07:20:32;;;;;;;18.98;8.23;;;;;;;18.39;53.80;102603.38;6095181;19;20015;-74
2023/05/20 07:22:37;;;;;;;15.90;7.28;;;;;;;18.46;53.09;102606.59;6096877;19;20010;-74
2023/05/20 07:24:42;;;;;;;16.83;7.75;;;;;;;18.30;53.21;102615.31;6093720;19;20010;-73
2023/05/20 07:26:48;;;;;;;15.38;7.22;;;;;;;18.23;52.75;102605.84;6095480;19;20575;-73
2023/05/20 07:28:53;;;;;;;12.93;6.70;;;;;;;18.62;53.02;102607.66;6092457;19;20006;-73
2023/05/20 07:30:59;;;;;;;16.63;7.57;;;;;;;18.79;51.94;102602.41;6100852;19;20019;-74
2023/05/20 07:33:07;;;;;;;16.20;7.10;;;;;;;18.85;51.45;102596.81;6094044;19;20132;-74
2023/05/20 07:35:12;;;;;;;17.17;7.28;;;;;;;19.15;51.51;102598.94;6095531;19;20038;-74
2023/05/20 07:37:19;;;;;;;15.10;7.10;;;;;;;19.36;51.50;102596.16;6100303;19;20148;-74
2023/05/20 07:39:25;;;;;;;18.90;7.25;;;;;;;19.30;51.07;102600.84;6095440;19;20006;-73
2023/05/20 07:41:30;;;;;;;18.48;6.43;;;;;;;19.63;50.43;102589.41;6098214;19;20039;-75
2023/05/20 07:43:35;;;;;;;16.15;6.60;;;;;;;19.70;49.85;102595.34;6094034;19;20039;-74
2023/05/20 07:45:40;;;;;;;16.48;7.85;;;;;;;19.47;49.75;102593.81;6098494;19;20018;-74
2023/05/20 07:47:45;;;;;;;15.45;6.95;;;;;;;19.67;49.98;102591.03;6093165;19;20042;-75
2023/05/20 07:49:56;;;;;;;13.82;7.05;;;;;;;19.57;49.79;102591.56;6096838;19;20048;-73
2023/05/20 07:52:01;;;;;;;15.40;7.15;;;;;;;19.87;49.46;102587.31;6095918;19;20014;-74
2023/05/20 07:54:06;;;;;;;20.27;7.10;;;;;;;20.13;48.70;102569.09;6093279;19;20010;-73
2023/05/20 07:56:11;;;;;;;14.57;8.18;;;;;;;20.02;49.07;102579.47;6096973;19;20049;-73
2023/05/20 07:58:16;;;;;;;14.65;7.57;;;;;;;20.04;49.13;102575.78;6096722;19;20010;-73
2023/05/20 08:00:22;;;;;;;15.48;7.20;;;;;;;20.10;48.80;102567.44;6098484;19;20041;-73
2023/05/20 08:02:30;;;;;;;15.63;7.25;;;;;;;20.51;48.84;102572.38;6076304;19;20007;-73
2023/05/20 08:04:35;;;;;;;17.27;7.15;;;;;;;20.48;47.63;102572.50;6098448;19;20011;-73
2023/05/20 08:06:43;;;;;;;17.30;8.95;;;;;;;20.56;47.07;102574.78;6093105;19;20017;-74
2023/05/20 08:08:49;;;;;;;13.43;6.85;;;;;;;20.51;47.36;102584.84;6097222;19;20038;-73
2023/05/20 08:10:57;;;;;;;14.27;7.22;;;;;;;20.71;47.30;102573.09;6100607;19;20015;-73
2023/05/20 08:13:02;;;;;;;17.02;7.30;;;;;;;20.49;46.43;102576.94;6098257;19;20025;-73
2023/05/20 08:15:09;;;;;;;14.70;6.80;;;;;;;20.30;47.01;102576.19;6098323;19;20514;-72
2023/05/20 08:17:14;;;;;;;13.43;6.90;;;;;;;20.48;47.45;102568.97;6093388;19;20010;-73
2023/05/20 08:19:19;;;;;;;12.90;6.55;;;;;;;20.48;47.01;102571.66;6097280;19;20016;-73
2023/05/20 08:21:27;;;;;;;15.48;6.78;;;;;;;20.26;47.26;102582.66;6094095;19;20013;-73
2023/05/20 08:23:35;;;;;;;17.85;7.05;;;;;;;20.41;46.91;102573.81;6094053;19;20010;-73
2023/05/20 08:25:45;;;;;;;20.35;8.98;;;;;;;20.83;47.02;102575.09;6097994;19;23870;-73
2023/05/20 08:27:50;;;;;;;13.63;6.20;;;;;;;20.96;45.65;102572.59;6091354;19;20933;-73
2023/05/20 08:29:55;;;;;;;15.30;6.47;;;;;;;20.90;45.61;102573.78;6097867;19;20531;-73
2023/05/20 08:32:03;;;;;;;13.13;6.43;;;;;;;21.18;45.40;102573.06;6098915;19;20044;-73
2023/05/20 08:34:09;;;;;;;16.48;6.95;;;;;;;20.92;45.22;102565.69;6099701;19;20010;-73
2023/05/20 08:36:15;;;;;;;14.43;7.00;;;;;;;20.68;45.72;102563.44;6099049;19;20011;-73
2023/05/20 08:38:23;;;;;;;14.10;6.47;;;;;;;20.88;45.37;102565.00;6098992;19;20358;-73
2023/05/20 08:40:32;;;;;;;15.60;6.82;;;;;;;21.06;45.79;102565.75;6101600;19;20014;-73
2023/05/20 08:42:38;;;;;;;13.82;7.10;;;;;;;21.01;45.27;102560.69;6098741;19;20506;-73
2023/05/20 08:44:48;;;;;;;19.83;7.97;;;;;;;21.07;44.48;102558.59;6100640;19;20017;-74
2023/05/20 08:46:54;;;;;;;12.32;5.75;;;;;;;20.54;44.28;102560.69;6099332;19;20448;-73
2023/05/20 08:49:02;;;;;;;11.77;5.57;;;;;;;20.98;44.54;102552.81;6098945;19;20376;-73
2023/05/20 08:51:11;;;;;;;15.07;6.68;;;;;;;20.95;43.74;102561.00;6099677;19;20379;-72
2023/05/20 08:53:16;;;;;;;11.27;5.55;;;;;;;20.72;43.83;102553.44;6093265;19;20082;-72
2023/05/20 08:55:28;;;;;;;11.20;5.57;;;;;;;20.72;43.99;102542.75;6099392;19;20558;-72
2023/05/20 08:57:36;;;;;;;11.45;5.63;;;;;;;21.17;43.37;102543.72;6097646;19;20369;-72
2023/05/20 08:59:45;;;;;;;12.07;5.30;;;;;;;20.95;43.67;102539.63;6103174;19;20002;-73
2023/05/20 09:01:50;;;;;;;12.13;5.05;;;;;;;21.02;42.96;102545.50;6104273;19;20528;-73
2023/05/20 09:03:56;;;;;;;13.10;5.40;;;;;;;20.99;42.99;102540.34;6107672;19;20011;-73
2023/05/20 09:06:06;;;;;;;13.00;5.45;;;;;;;21.19;42.96;102539.16;6107650;19;20028;-72
2023/05/20 09:08:13;;;;;;;10.15;5.95;;;;;;;20.78;43.09;102535.25;6105662;19;20014;-73
2023/05/20 09:12:40;;;;;;;13.63;5.25;;;;;;;21.21;42.62;102547.97;6106953;19;20015;-73
2023/05/20 09:14:45;;;;;;;14.10;5.32;;;;;;;21.05;42.44;102543.50;6105594;19;20014;-73
2023/05/20 09:16:51;;;;;;;9.93;5.00;;;;;;;21.59;41.99;102542.19;6105015;19;20003;-72
2023/05/20 09:19:00;;;;;;;9.75;5.18;;;;;;;21.35;42.48;102539.97;6107805;19;20014;-72
2023/05/20 09:21:08;;;;;;;12.18;5.40;;;;;;;21.18;42.01;102534.78;6106734;19;19998;-72
2023/05/20 09:23:13;;;;;;;12.52;4.80;;;;;;;20.94;42.04;102535.25;6105275;19;20021;-72
2023/05/20 09:25:21;;;;;;;9.43;5.18;;;;;;;21.10;42.89;102527.22;6106387;19;20438;-72
2023/05/20 09:27:33;;;;;;;12.75;5.00;;;;;;;21.59;42.76;102516.31;6097136;19;20074;-75
2023/05/20 09:29:42;;;;;;;9.50;4.30;;;;;;;21.92;41.23;102521.41;6106280;19;20264;-73
2023/05/20 09:31:47;;;;;;;10.77;5.07;;;;;;;20.99;42.11;102511.78;6104847;19;20046;-73
2023/05/20 09:33:54;;;;;;;9.57;4.80;;;;;;;20.75;42.85;102518.56;6103585;19;20014;-73
2023/05/20 09:36:10;;;;;;;7.75;4.38;;;;;;;21.32;42.00;102524.13;6105774;19;20459;-73
2023/05/20 09:38:17;;;;;;;6.93;3.50;;;;;;;21.80;40.32;102515.94;6105431;19;20038;-73
2023/05/20 09:40:26;;;;;;;10.25;4.03;;;;;;;21.40;40.28;102515.69;6101423;19;20025;-73
2023/05/20 09:42:40;;;;;;;9.02;3.70;;;;;;;21.43;40.07;102507.47;6104516;19;20006;-72
2023/05/20 09:44:50;;;;;;;7.95;4.18;;;;;;;20.69;41.61;102518.88;6104454;19;20035;-75